Time;durP1;ratioP1;P1;durP2;ratioP2;P2;SDS_P1;SDS_P2;PMS_P1;PMS_P2;Temp;Humidity;BMP_temperature;BMP_pressure;BME280_temperature;BME280_humidity;BME280_pressure;Samples;Min_cycle;Max_cycle;Signal;HPM_P1;HPM_P2
2023/03/31 00:00:29;;;;;;;64.65;7.78;;;;;;;;;;5089773;28;20040;-68
2023/03/31 00:02:57;;;;;;;65.80;7.97;;;;;;;;;;5085538;28;20052;-68
2023/03/31 00:05:24;;;;;;;66.30;8.77;;;;;;;;;;5085056;28;20048;-68
2023/03/31 00:08:00;;;;;;;71.07;7.95;;;;;;;;;;5085933;28;20055;-68
2023/03/31 00:10:27;;;;;;;61.72;8.45;;;;;;;;;;5086840;28;20051;-68
2023/03/31 00:12:56;;;;;;;63.80;7.80;;;;;;;;;;5088343;28;20044;-68
2023/03/31 00:15:23;;;;;;;70.75;7.15;;;;;;;;;;5089894;28;20064;-68
2023/03/31 00:17:50;;;;;;;66.07;8.18;;;;;;;;;;5083462;28;20059;-68
2023/03/31 00:20:18;;;;;;;57.20;7.40;;;;;;;;;;5081058;28;20067;-68
2023/03/31 00:22:46;;;;;;;54.40;6.97;;;;;;;;;;5066683;28;20051;-68
2023/03/31 00:25:13;;;;;;;49.70;8.15;;;;;;;;;;5086879;28;20056;-68
2023/03/31 00:27:43;;;;;;;72.60;7.20;;;;;;;;;;5086401;28;20046;-68
2023/03/31 00:30:12;;;;;;;57.05;7.25;;;;;;;;;;5085976;28;20059;-68
2023/03/31 00:32:39;;;;;;;59.35;8.57;;;;;;;;;;5086844;28;20054;-68
2023/03/31 00:35:07;;;;;;;64.90;10.35;;;;;;;;;;5086490;28;20052;-68
2023/03/31 00:37:34;;;;;;;62.60;7.63;;;;;;;;;;5084628;28;20376;-68
2023/03/31 00:40:05;;;;;;;54.35;7.63;;;;;;;;;;5088299;28;20813;-68
2023/03/31 00:42:32;;;;;;;54.05;7.13;;;;;;;;;;5086890;28;20384;-68
2023/03/31 00:45:23;;;;;;;53.53;6.85;;;;;;;;;;5088283;28;20047;-68
2023/03/31 00:47:53;;;;;;;50.97;7.72;;;;;;;;;;5088211;28;20047;-69
2023/03/31 00:50:21;;;;;;;58.35;6.57;;;;;;;;;;5087497;28;20403;-68
2023/03/31 00:52:50;;;;;;;56.47;6.30;;;;;;;;;;5085098;28;20044;-68
2023/03/31 00:55:20;;;;;;;54.08;7.28;;;;;;;;;;5083166;28;20049;-68
2023/03/31 00:57:48;;;;;;;55.15;5.80;;;;;;;;;;5083419;28;20043;-68
2023/03/31 01:00:17;;;;;;;54.35;6.13;;;;;;;;;;5082246;28;20124;-68
2023/03/31 01:02:51;;;;;;;49.65;6.63;;;;;;;;;;5083669;28;20139;-68
2023/03/31 01:05:20;;;;;;;51.30;6.35;;;;;;;;;;5084288;28;20058;-68
2023/03/31 01:07:49;;;;;;;54.83;6.30;;;;;;;;;;5086781;28;20049;-68
2023/03/31 01:10:16;;;;;;;62.70;6.60;;;;;;;;;;5088728;28;20055;-68
2023/03/31 01:12:45;;;;;;;45.85;5.95;;;;;;;;;;5067917;28;20044;-69
2023/03/31 01:15:13;;;;;;;49.58;6.50;;;;;;;;;;5087088;28;20056;-68
2023/03/31 01:17:43;;;;;;;57.13;6.47;;;;;;;;;;5086638;28;20059;-68
2023/03/31 01:20:18;;;;;;;50.42;7.40;;;;;;;;;;5087446;28;20145;-68
2023/03/31 01:23:04;;;;;;;42.05;6.40;;;;;;;;;;5089154;28;20437;-69
2023/03/31 01:25:44;;;;;;;44.30;6.25;;;;;;;;;;5084955;28;20060;-68
2023/03/31 01:28:19;;;;;;;49.20;6.40;;;;;;;;;;5081635;28;20040;-68
2023/03/31 01:31:05;;;;;;;52.88;5.68;;;;;;;;;;5064548;28;20056;-68
2023/03/31 01:34:02;;;;;;;36.50;6.25;;;;;;;;;;5082211;28;20052;-68
2023/03/31 01:36:36;;;;;;;42.85;6.85;;;;;;;;;;5077198;28;20419;-69
2023/03/31 01:39:18;;;;;;;46.97;5.53;;;;;;;;;;5080079;28;20483;-68
2023/03/31 01:41:50;;;;;;;39.15;5.72;;;;;;;;;;5085055;28;20044;-68
2023/03/31 01:44:21;;;;;;;48.17;5.93;;;;;;;;;;5066349;28;20056;-68
2023/03/31 01:46:54;;;;;;;37.67;5.13;;;;;;;;;;5063847;28;20052;-69
2023/03/31 01:49:24;;;;;;;49.05;5.63;;;;;;;;;;5084239;28;20158;-68
2023/03/31 01:51:57;;;;;;;49.42;6.15;;;;;;;;;;5086760;28;20487;-69
2023/03/31 01:54:30;;;;;;;55.15;6.32;;;;;;;;;;5087335;28;20054;-68
2023/03/31 01:57:01;;;;;;;52.60;5.68;;;;;;;;;;5085437;28;20406;-68
2023/03/31 01:59:29;;;;;;;49.80;6.75;;;;;;;;;;5081222;28;20066;-69
2023/03/31 02:01:58;;;;;;;46.78;5.32;;;;;;;;;;5086045;28;20071;-68
2023/03/31 02:04:27;;;;;;;45.72;6.57;;;;;;;;;;5076472;28;20438;-69
2023/03/31 02:06:57;;;;;;;37.05;5.50;;;;;;;;;;5087082;28;20495;-69
2023/03/31 02:09:25;;;;;;;41.83;5.20;;;;;;;;;;5081577;28;20052;-69
2023/03/31 02:11:57;;;;;;;45.10;6.35;;;;;;;;;;5086509;28;20056;-69
2023/03/31 02:14:28;;;;;;;57.10;6.18;;;;;;;;;;5066775;28;20048;-69
2023/03/31 02:16:57;;;;;;;50.75;5.47;;;;;;;;;;5088036;28;20047;-69
2023/03/31 02:19:26;;;;;;;44.45;6.18;;;;;;;;;;5088298;28;20036;-69
2023/03/31 02:21:54;;;;;;;50.00;6.43;;;;;;;;;;5082917;28;20494;-69
2023/03/31 02:24:24;;;;;;;37.47;5.50;;;;;;;;;;5067553;28;20059;-69
2023/03/31 02:26:54;;;;;;;43.42;5.30;;;;;;;;;;5068670;28;20047;-68
2023/03/31 02:29:21;;;;;;;44.42;4.93;;;;;;;;;;5084005;28;20114;-69
2023/03/31 02:31:53;;;;;;;34.75;5.88;;;;;;;;;;5077297;28;20468;-69
2023/03/31 02:34:20;;;;;;;37.00;5.10;;;;;;;;;;5059673;28;20048;-69
2023/03/31 02:36:49;;;;;;;38.63;5.20;;;;;;;;;;5086552;28;20044;-69
2023/03/31 02:39:18;;;;;;;42.33;5.22;;;;;;;;;;5087731;28;20084;-68
2023/03/31 02:41:46;;;;;;;45.42;5.57;;;;;;;;;;5085418;28;20044;-68
2023/03/31 02:44:13;;;;;;;37.83;5.97;;;;;;;;;;5063054;28;20605;-69
2023/03/31 02:46:41;;;;;;;36.15;4.88;;;;;;;;;;5084753;28;20043;-69
2023/03/31 02:49:10;;;;;;;37.65;4.88;;;;;;;;;;5082810;28;20056;-69
2023/03/31 02:51:51;;;;;;;48.35;6.03;;;;;;;;;;5083324;28;20055;-69
2023/03/31 02:54:29;;;;;;;46.00;5.53;;;;;;;;;;5082924;28;20079;-69
2023/03/31 02:57:07;;;;;;;38.97;4.78;;;;;;;;;;5084124;28;20055;-69
2023/03/31 02:59:40;;;;;;;48.15;5.68;;;;;;;;;;5085462;28;20048;-69
2023/03/31 03:02:13;;;;;;;33.38;5.38;;;;;;;;;;5082475;28;20507;-69
2023/03/31 03:04:50;;;;;;;33.53;4.95;;;;;;;;;;5065958;28;20051;-68
2023/03/31 03:07:23;;;;;;;41.72;5.25;;;;;;;;;;5084876;28;20051;-69
2023/03/31 03:09:58;;;;;;;37.90;6.07;;;;;;;;;;5081906;28;20070;-69
2023/03/31 03:12:28;;;;;;;35.30;4.88;;;;;;;;;;5084590;28;20048;-69
2023/03/31 03:14:59;;;;;;;31.42;4.20;;;;;;;;;;5082916;28;20048;-69
2023/03/31 03:17:28;;;;;;;33.28;4.03;;;;;;;;;;5085329;28;20044;-69
2023/03/31 03:19:57;;;;;;;31.27;4.28;;;;;;;;;;5087856;28;20044;-69
2023/03/31 03:22:24;;;;;;;37.28;5.00;;;;;;;;;;5081506;28;20383;-69
2023/03/31 03:24:52;;;;;;;31.27;3.92;;;;;;;;;;5087559;28;20044;-69
2023/03/31 03:27:21;;;;;;;31.83;5.00;;;;;;;;;;5085003;28;20064;-69
2023/03/31 03:29:48;;;;;;;32.85;5.35;;;;;;;;;;5088177;28;20131;-69
2023/03/31 03:32:15;;;;;;;29.75;4.07;;;;;;;;;;5082480;28;20371;-69
2023/03/31 03:34:42;;;;;;;30.35;4.28;;;;;;;;;;5084901;28;20055;-69
2023/03/31 03:37:11;;;;;;;42.70;5.35;;;;;;;;;;5067723;28;20064;-69
2023/03/31 03:39:38;;;;;;;37.75;4.40;;;;;;;;;;5085669;28;20048;-69
2023/03/31 03:42:06;;;;;;;38.60;4.47;;;;;;;;;;5085438;28;20067;-69
2023/03/31 03:44:33;;;;;;;45.47;4.40;;;;;;;;;;5085162;28;20044;-69
2023/03/31 03:47:00;;;;;;;33.95;4.85;;;;;;;;;;5084063;28;20048;-68
2023/03/31 03:49:27;;;;;;;33.53;4.60;;;;;;;;;;5085362;28;20048;-68
2023/03/31 03:51:55;;;;;;;26.98;4.65;;;;;;;;;;5080153;28;20487;-68
2023/03/31 03:54:24;;;;;;;29.30;4.88;;;;;;;;;;5085717;28;20457;-69
2023/03/31 03:56:51;;;;;;;30.20;4.82;;;;;;;;;;5083347;28;20096;-68
2023/03/31 03:59:18;;;;;;;33.08;5.07;;;;;;;;;;5080833;28;20574;-69
2023/03/31 04:01:45;;;;;;;38.10;5.65;;;;;;;;;;5086457;28;20119;-69
2023/03/31 04:04:13;;;;;;;32.20;4.55;;;;;;;;;;5075715;28;20051;-69
2023/03/31 04:06:40;;;;;;;36.97;5.30;;;;;;;;;;5090904;28;20044;-69
2023/03/31 04:09:07;;;;;;;33.08;6.18;;;;;;;;;;5084218;28;20048;-69
2023/03/31 04:11:36;;;;;;;40.67;6.95;;;;;;;;;;5087136;28;20422;-69
2023/03/31 04:14:03;;;;;;;37.92;6.35;;;;;;;;;;5088753;28;20123;-69
2023/03/31 04:16:33;;;;;;;44.42;7.68;;;;;;;;;;5091680;28;20135;-69
2023/03/31 04:19:02;;;;;;;28.63;7.22;;;;;;;;;;5082630;28;20122;-69
2023/03/31 04:21:33;;;;;;;31.98;7.80;;;;;;;;;;5089875;28;20040;-69
2023/03/31 04:24:03;;;;;;;36.20;8.15;;;;;;;;;;5086141;28;20561;-69
2023/03/31 04:26:37;;;;;;;32.90;7.45;;;;;;;;;;5087945;28;20089;-69
2023/03/31 04:29:06;;;;;;;39.03;8.35;;;;;;;;;;5083366;28;20051;-69
2023/03/31 04:31:37;;;;;;;31.48;6.93;;;;;;;;;;5089087;28;20555;-69
2023/03/31 04:34:05;;;;;;;29.23;7.13;;;;;;;;;;5086927;28;20050;-69
2023/03/31 04:36:33;;;;;;;36.22;7.30;;;;;;;;;;5086644;28;20056;-68
2023/03/31 04:39:00;;;;;;;30.98;7.15;;;;;;;;;;5084584;28;20050;-69
2023/03/31 04:41:28;;;;;;;32.38;8.43;;;;;;;;;;5088810;28;20403;-69
2023/03/31 04:43:55;;;;;;;29.35;7.80;;;;;;;;;;5085297;28;20521;-69
2023/03/31 04:46:24;;;;;;;35.83;7.70;;;;;;;;;;5085457;28;20043;-69
2023/03/31 04:48:51;;;;;;;37.97;8.50;;;;;;;;;;5067047;28;20062;-69
2023/03/31 04:51:19;;;;;;;28.35;7.80;;;;;;;;;;5085424;28;20562;-69
2023/03/31 04:53:46;;;;;;;34.80;9.73;;;;;;;;;;5085196;28;20093;-69
2023/03/31 04:56:13;;;;;;;30.48;8.65;;;;;;;;;;5084040;28;20051;-69
2023/03/31 04:58:40;;;;;;;35.53;8.90;;;;;;;;;;5088096;28;20052;-68
2023/03/31 05:01:08;;;;;;;31.08;9.23;;;;;;;;;;5084515;28;20052;-68
2023/03/31 05:03:36;;;;;;;36.67;8.88;;;;;;;;;;5089963;28;20052;-69
2023/03/31 05:06:04;;;;;;;28.90;7.95;;;;;;;;;;5066470;28;20471;-68
2023/03/31 05:08:32;;;;;;;26.30;8.50;;;;;;;;;;5087382;28;20043;-69
2023/03/31 05:10:59;;;;;;;32.85;8.93;;;;;;;;;;5082609;28;20068;-68
2023/03/31 05:13:27;;;;;;;37.53;9.35;;;;;;;;;;5087630;28;20053;-69
2023/03/31 05:15:54;;;;;;;29.00;8.77;;;;;;;;;;5076960;28;20506;-68
2023/03/31 05:18:21;;;;;;;33.40;8.80;;;;;;;;;;5070884;28;20048;-69
2023/03/31 05:20:50;;;;;;;27.33;8.43;;;;;;;;;;5083006;28;20056;-69
2023/03/31 05:23:17;;;;;;;44.70;10.55;;;;;;;;;;5083804;28;20044;-68
2023/03/31 05:25:44;;;;;;;27.05;8.63;;;;;;;;;;5088608;28;20062;-69
2023/03/31 05:28:12;;;;;;;25.67;8.48;;;;;;;;;;5086606;28;20050;-69
2023/03/31 05:30:39;;;;;;;28.08;9.57;;;;;;;;;;5079036;28;20048;-68
2023/03/31 05:33:06;;;;;;;25.10;8.73;;;;;;;;;;5082873;28;20042;-69
2023/03/31 05:35:34;;;;;;;29.88;9.30;;;;;;;;;;5076447;28;20063;-69
2023/03/31 05:38:02;;;;;;;27.85;9.77;;;;;;;;;;5084679;28;20055;-68
2023/03/31 05:40:29;;;;;;;31.08;9.65;;;;;;;;;;5078391;28;20055;-69
2023/03/31 05:42:57;;;;;;;27.40;9.88;;;;;;;;;;5082980;28;20044;-69
2023/03/31 05:45:24;;;;;;;28.23;10.18;;;;;;;;;;5084144;28;20044;-69
2023/03/31 05:47:51;;;;;;;27.83;10.20;;;;;;;;;;5086259;28;20058;-69
2023/03/31 05:50:19;;;;;;;35.38;11.50;;;;;;;;;;5062542;28;20063;-69
2023/03/31 05:52:46;;;;;;;28.08;9.88;;;;;;;;;;5083200;28;21655;-69
2023/03/31 05:55:18;;;;;;;26.30;9.43;;;;;;;;;;5087385;28;20495;-69
2023/03/31 05:57:45;;;;;;;31.40;9.75;;;;;;;;;;5079807;28;20075;-69
2023/03/31 06:00:13;;;;;;;37.13;11.15;;;;;;;;;;5087302;28;20055;-69
2023/03/31 06:02:41;;;;;;;39.35;11.20;;;;;;;;;;5085355;28;20134;-69
2023/03/31 06:05:09;;;;;;;37.83;10.77;;;;;;;;;;5085557;28;20200;-69
2023/03/31 06:07:36;;;;;;;49.08;11.98;;;;;;;;;;5083571;28;20400;-69
2023/03/31 06:10:06;;;;;;;36.08;10.68;;;;;;;;;;5085378;28;20055;-69
2023/03/31 06:12:34;;;;;;;33.33;10.18;;;;;;;;;;5062151;28;20079;-69
2023/03/31 06:15:02;;;;;;;33.33;11.05;;;;;;;;;;5064061;28;20041;-69
2023/03/31 06:17:29;;;;;;;33.45;11.30;;;;;;;;;;5064514;28;20148;-69
2023/03/31 06:19:56;;;;;;;31.10;11.85;;;;;;;;;;5062940;28;20041;-69
2023/03/31 06:22:23;;;;;;;26.92;10.90;;;;;;;;;;5067730;28;20049;-69
2023/03/31 06:24:51;;;;;;;32.67;11.15;;;;;;;;;;5066367;28;20060;-69
2023/03/31 06:27:18;;;;;;;34.10;11.82;;;;;;;;;;5067043;28;20392;-69
2023/03/31 06:29:48;;;;;;;38.80;11.93;;;;;;;;;;5065920;28;20052;-69
2023/03/31 06:32:16;;;;;;;28.42;10.88;;;;;;;;;;5059677;28;20845;-69
2023/03/31 06:34:43;;;;;;;34.83;11.70;;;;;;;;;;5060586;28;20055;-68
2023/03/31 06:37:10;;;;;;;28.27;10.65;;;;;;;;;;5062710;28;20084;-69
2023/03/31 06:39:37;;;;;;;28.25;10.45;;;;;;;;;;5064136;28;20059;-68
2023/03/31 06:42:06;;;;;;;23.27;9.27;;;;;;;;;;5065121;28;20123;-68
2023/03/31 06:44:33;;;;;;;24.00;10.25;;;;;;;;;;5066737;28;20052;-69
2023/03/31 06:47:01;;;;;;;25.73;10.02;;;;;;;;;;5060669;28;20054;-69
2023/03/31 06:49:29;;;;;;;29.08;10.27;;;;;;;;;;5064957;28;20060;-69
2023/03/31 06:51:56;;;;;;;24.58;9.63;;;;;;;;;;5064702;28;20052;-69
2023/03/31 06:54:23;;;;;;;23.70;9.15;;;;;;;;;;5066011;28;20056;-69
2023/03/31 06:56:51;;;;;;;21.27;7.93;;;;;;;;;;5066164;28;20407;-69
2023/03/31 06:59:18;;;;;;;17.25;7.28;;;;;;;;;;5064480;28;20123;-69
2023/03/31 07:01:47;;;;;;;14.63;6.13;;;;;;;;;;5062249;28;20059;-69
2023/03/31 07:04:16;;;;;;;17.88;5.10;;;;;;;;;;5064481;28;20554;-71
2023/03/31 07:06:43;;;;;;;14.77;5.72;;;;;;;;;;5066231;28;20415;-69
2023/03/31 07:09:10;;;;;;;12.00;4.90;;;;;;;;;;5064999;28;20041;-69
2023/03/31 07:11:37;;;;;;;12.05;4.50;;;;;;;;;;5072992;28;20053;-69
2023/03/31 07:14:05;;;;;;;14.00;5.40;;;;;;;;;;5087091;28;20505;-69
2023/03/31 07:16:32;;;;;;;13.10;4.60;;;;;;;;;;5088217;28;20422;-69
2023/03/31 07:19:02;;;;;;;13.07;4.57;;;;;;;;;;5064739;28;20051;-69
2023/03/31 07:21:31;;;;;;;11.82;4.50;;;;;;;;;;5085309;28;20461;-69
2023/03/31 07:23:58;;;;;;;14.85;5.72;;;;;;;;;;5085062;28;20040;-69
2023/03/31 07:26:26;;;;;;;12.27;4.30;;;;;;;;;;5083907;28;20101;-69
2023/03/31 07:28:55;;;;;;;13.55;4.18;;;;;;;;;;5080467;28;20054;-69
2023/03/31 07:31:23;;;;;;;7.78;3.30;;;;;;;;;;5083656;28;20059;-69
2023/03/31 07:33:50;;;;;;;10.48;3.60;;;;;;;;;;5079060;28;20040;-69
2023/03/31 07:36:17;;;;;;;9.40;3.40;;;;;;;;;;5082099;28;20044;-69
2023/03/31 07:38:47;;;;;;;8.93;3.10;;;;;;;;;;5068957;28;20050;-69
2023/03/31 07:41:17;;;;;;;14.23;3.00;;;;;;;;;;5090049;28;20466;-69
2023/03/31 07:43:44;;;;;;;11.02;3.50;;;;;;;;;;5086505;28;20036;-69
2023/03/31 07:46:15;;;;;;;10.80;3.72;;;;;;;;;;5089956;28;20044;-69
2023/03/31 07:48:43;;;;;;;15.27;3.47;;;;;;;;;;5087643;28;20127;-69
2023/03/31 07:51:10;;;;;;;13.43;3.38;;;;;;;;;;5086896;28;20052;-70
2023/03/31 07:53:37;;;;;;;10.40;3.00;;;;;;;;;;5066656;28;20109;-69
2023/03/31 07:56:06;;;;;;;12.68;3.17;;;;;;;;;;5087444;28;20043;-70
2023/03/31 07:58:33;;;;;;;12.55;3.22;;;;;;;;;;5088477;28;20056;-70
2023/03/31 08:01:01;;;;;;;13.20;3.10;;;;;;;;;;5085899;28;20418;-70
2023/03/31 08:03:28;;;;;;;15.05;3.40;;;;;;;;;;5062855;28;20048;-70
2023/03/31 08:05:56;;;;;;;8.93;3.20;;;;;;;;;;5088711;28;20044;-70
2023/03/31 08:08:23;;;;;;;17.75;4.00;;;;;;;;;;5089507;28;20044;-70
2023/03/31 08:10:50;;;;;;;8.07;3.38;;;;;;;;;;5088336;28;20063;-70
2023/03/31 08:13:19;;;;;;;16.42;4.60;;;;;;;;;;5088394;28;20055;-70
2023/03/31 08:15:47;;;;;;;9.10;4.00;;;;;;;;;;5088958;28;20051;-70
2023/03/31 08:18:14;;;;;;;12.43;4.75;;;;;;;;;;5089103;28;20048;-70
2023/03/31 08:20:41;;;;;;;13.10;4.90;;;;;;;;;;5079460;28;20056;-70
2023/03/31 08:23:10;;;;;;;12.95;4.35;;;;;;;;;;5083799;28;20082;-70
2023/03/31 08:25:38;;;;;;;8.43;4.38;;;;;;;;;;5086322;28;20086;-70
2023/03/31 08:28:05;;;;;;;11.18;5.10;;;;;;;;;;5088669;28;20062;-71
2023/03/31 08:30:34;;;;;;;16.58;5.28;;;;;;;;;;5087649;28;20445;-70
2023/03/31 08:33:01;;;;;;;11.20;5.35;;;;;;;;;;5084001;28;20064;-70
2023/03/31 08:35:28;;;;;;;10.93;4.55;;;;;;;;;;5085050;28;20047;-71
2023/03/31 08:37:56;;;;;;;10.75;5.43;;;;;;;;;;5081229;28;20044;-70
2023/03/31 08:40:25;;;;;;;11.88;5.15;;;;;;;;;;5083118;28;20087;-70
2023/03/31 08:42:54;;;;;;;11.65;5.20;;;;;;;;;;5069766;28;20071;-71
2023/03/31 08:45:22;;;;;;;14.52;6.05;;;;;;;;;;5089330;28;20044;-70
2023/03/31 08:47:53;;;;;;;15.52;6.35;;;;;;;;;;5081141;28;20480;-70
2023/03/31 08:50:22;;;;;;;15.43;5.22;;;;;;;;;;5081875;28;20131;-71
2023/03/31 08:52:50;;;;;;;14.68;6.00;;;;;;;;;;5065252;28;20081;-71
2023/03/31 08:55:20;;;;;;;10.40;4.95;;;;;;;;;;5080235;28;20110;-70
2023/03/31 08:57:53;;;;;;;11.02;4.65;;;;;;;;;;5081052;28;20063;-70
2023/03/31 09:00:20;;;;;;;13.13;5.05;;;;;;;;;;5066860;28;20062;-70
2023/03/31 09:02:51;;;;;;;7.28;4.32;;;;;;;;;;5085734;28;20127;-71
2023/03/31 09:05:37;;;;;;;11.68;5.20;;;;;;;;;;5082002;28;20048;-70
2023/03/31 09:08:11;;;;;;;11.63;3.80;;;;;;;;;;5085408;28;20048;-70
2023/03/31 09:10:42;;;;;;;13.85;4.03;;;;;;;;;;5086381;28;20052;-70
2023/03/31 09:13:18;;;;;;;11.15;4.45;;;;;;;;;;5089041;28;20139;-70
2023/03/31 09:15:49;;;;;;;11.43;4.32;;;;;;;;;;5085097;28;20047;-71
2023/03/31 09:18:19;;;;;;;11.65;3.60;;;;;;;;;;5086046;28;20059;-71
2023/03/31 09:20:49;;;;;;;10.10;3.30;;;;;;;;;;5084265;28;20043;-71
2023/03/31 09:23:23;;;;;;;12.88;3.40;;;;;;;;;;5069091;28;20962;-71
2023/03/31 09:25:50;;;;;;;8.25;3.40;;;;;;;;;;5087076;28;20414;-70
2023/03/31 09:28:20;;;;;;;12.32;2.80;;;;;;;;;;5080390;28;20079;-70
2023/03/31 09:30:48;;;;;;;8.27;2.75;;;;;;;;;;5087014;28;20044;-71
2023/03/31 09:33:17;;;;;;;9.52;3.05;;;;;;;;;;5086087;28;20406;-71
2023/03/31 09:35:44;;;;;;;7.65;2.70;;;;;;;;;;5085324;28;20048;-71
2023/03/31 09:38:12;;;;;;;11.80;2.95;;;;;;;;;;5085416;28;20513;-72
2023/03/31 09:40:41;;;;;;;7.55;2.33;;;;;;;;;;5086318;28;20056;-72
2023/03/31 09:43:09;;;;;;;9.23;2.50;;;;;;;;;;5068795;28;20059;-70
2023/03/31 09:45:37;;;;;;;10.93;2.75;;;;;;;;;;5082896;28;20044;-70
2023/03/31 09:48:06;;;;;;;6.70;2.42;;;;;;;;;;5081895;28;20046;-70
2023/03/31 09:50:38;;;;;;;12.63;3.38;;;;;;;;;;5066620;28;20139;-70
2023/03/31 09:53:05;;;;;;;9.98;2.90;;;;;;;;;;5083410;28;20080;-70
2023/03/31 09:55:37;;;;;;;12.23;2.80;;;;;;;;;;5085177;28;20048;-70
2023/03/31 09:58:08;;;;;;;6.32;2.42;;;;;;;;;;5080189;28;20051;-71
2023/03/31 10:00:36;;;;;;;7.68;2.45;;;;;;;;;;5065700;28;20056;-70
2023/03/31 10:03:06;;;;;;;6.70;2.85;;;;;;;;;;5081220;28;20054;-70
2023/03/31 10:05:35;;;;;;;8.68;2.72;;;;;;;;;;5064114;28;20113;-69
2023/03/31 10:08:29;;;;;;;10.30;2.70;;;;;;;;;;5077546;28;20048;-69
2023/03/31 10:10:58;;;;;;;7.07;2.72;;;;;;;;;;5038227;28;20056;-69
2023/03/31 10:13:28;;;;;;;11.82;3.30;;;;;;;;;;5081825;28;20050;-68
2023/03/31 10:15:56;;;;;;;10.88;3.97;;;;;;;;;;5084044;28;20046;-68
2023/03/31 10:18:32;;;;;;;16.40;4.40;;;;;;;;;;5080810;28;20044;-69
2023/03/31 10:20:59;;;;;;;13.10;3.88;;;;;;;;;;5079505;28;20078;-69
2023/03/31 10:23:29;;;;;;;14.10;4.15;;;;;;;;;;5083082;28;20052;-69
2023/03/31 10:25:56;;;;;;;11.18;3.70;;;;;;;;;;5081233;28;20129;-69
2023/03/31 10:28:24;;;;;;;14.00;3.35;;;;;;;;;;5081632;28;20453;-69
2023/03/31 10:30:53;;;;;;;11.23;3.15;;;;;;;;;;5079692;28;20078;-69
2023/03/31 10:33:22;;;;;;;12.90;3.53;;;;;;;;;;5086765;28;20387;-69
2023/03/31 10:35:50;;;;;;;10.30;3.80;;;;;;;;;;5067110;28;20475;-69
2023/03/31 10:38:20;;;;;;;14.77;3.55;;;;;;;;;;5081240;28;20052;-69
2023/03/31 10:40:51;;;;;;;10.00;3.00;;;;;;;;;;5081975;28;20051;-69
2023/03/31 10:43:20;;;;;;;17.75;3.97;;;;;;;;;;5080054;28;20514;-69
2023/03/31 10:45:48;;;;;;;12.00;3.63;;;;;;;;;;5083346;28;20130;-69
2023/03/31 10:48:24;;;;;;;17.77;3.10;;;;;;;;;;5084961;28;20052;-69
2023/03/31 10:50:51;;;;;;;14.55;3.45;;;;;;;;;;5086831;28;20048;-69
2023/03/31 10:53:19;;;;;;;13.18;3.10;;;;;;;;;;5086261;28;20048;-69
2023/03/31 10:55:52;;;;;;;13.52;3.35;;;;;;;;;;5084082;28;20453;-69
2023/03/31 10:58:27;;;;;;;12.13;3.13;;;;;;;;;;5088341;28;20058;-69
2023/03/31 11:01:03;;;;;;;13.18;3.25;;;;;;;;;;5086634;28;20052;-69
2023/03/31 11:03:49;;;;;;;14.00;3.30;;;;;;;;;;5085230;28;20075;-69
2023/03/31 11:06:22;;;;;;;12.50;2.83;;;;;;;;;;5076699;28;20048;-69
2023/03/31 11:08:53;;;;;;;16.15;3.50;;;;;;;;;;5082767;28;20135;-70
2023/03/31 11:11:27;;;;;;;12.13;3.20;;;;;;;;;;5082224;28;20060;-70
2023/03/31 11:13:57;;;;;;;14.15;3.00;;;;;;;;;;5065349;28;20392;-69
2023/03/31 11:16:26;;;;;;;11.90;3.40;;;;;;;;;;5087789;28;20495;-70
2023/03/31 11:19:14;;;;;;;13.88;3.30;;;;;;;;;;5056907;28;20052;-70
2023/03/31 11:21:50;;;;;;;22.65;3.92;;;;;;;;;;5078749;28;20049;-70
2023/03/31 11:24:22;;;;;;;13.52;3.40;;;;;;;;;;5082483;28;20048;-70
2023/03/31 11:26:52;;;;;;;14.55;3.22;;;;;;;;;;5085983;28;20056;-70
2023/03/31 11:29:33;;;;;;;17.25;3.58;;;;;;;;;;5088492;28;20063;-70
2023/03/31 11:32:08;;;;;;;15.05;2.92;;;;;;;;;;5087747;28;20408;-70
2023/03/31 11:34:43;;;;;;;17.35;3.30;;;;;;;;;;5086584;28;20482;-70
2023/03/31 11:37:30;;;;;;;13.00;3.00;;;;;;;;;;5086035;28;20052;-70
2023/03/31 11:40:06;;;;;;;13.13;2.50;;;;;;;;;;5085569;28;20521;-70
2023/03/31 11:42:35;;;;;;;12.48;2.63;;;;;;;;;;5088943;28;20052;-70
2023/03/31 11:45:06;;;;;;;14.40;3.30;;;;;;;;;;5088203;28;20047;-70
2023/03/31 11:47:36;;;;;;;10.63;3.25;;;;;;;;;;5071855;28;20062;-70
2023/03/31 11:50:05;;;;;;;15.20;3.33;;;;;;;;;;5087858;28;20507;-69
2023/03/31 11:52:35;;;;;;;12.88;3.53;;;;;;;;;;5089414;28;20372;-70
2023/03/31 11:55:05;;;;;;;17.65;4.32;;;;;;;;;;5084623;28;20048;-70
2023/03/31 11:57:34;;;;;;;13.02;2.70;;;;;;;;;;5081837;28;20049;-70
2023/03/31 12:00:07;;;;;;;8.57;2.47;;;;;;;;;;5085056;28;20747;-70
2023/03/31 12:02:40;;;;;;;12.75;3.50;;;;;;;;;;5085339;28;20187;-70
2023/03/31 12:05:09;;;;;;;13.55;4.13;;;;;;;;;;5082367;28;20044;-70
2023/03/31 12:07:42;;;;;;;11.43;3.22;;;;;;;;;;5087552;28;20051;-70
2023/03/31 12:10:15;;;;;;;11.77;3.55;;;;;;;;;;5084311;28;20062;-70
2023/03/31 12:12:44;;;;;;;13.85;3.30;;;;;;;;;;5079511;28;20496;-70
2023/03/31 12:15:15;;;;;;;16.17;3.50;;;;;;;;;;5081409;28;20415;-70
2023/03/31 12:17:44;;;;;;;18.05;2.85;;;;;;;;;;5083010;28;20048;-67
2023/03/31 12:20:15;;;;;;;14.25;2.55;;;;;;;;;;5080188;28;20382;-68
2023/03/31 12:22:44;;;;;;;11.45;2.95;;;;;;;;;;5082995;28;20133;-68
2023/03/31 12:25:13;;;;;;;13.10;2.85;;;;;;;;;;5077143;28;20052;-67
2023/03/31 12:27:41;;;;;;;13.40;2.63;;;;;;;;;;5084695;28;20047;-69
2023/03/31 12:30:12;;;;;;;7.82;1.90;;;;;;;;;;5082670;28;20048;-69
2023/03/31 12:32:41;;;;;;;11.35;2.30;;;;;;;;;;5088979;28;20526;-69
2023/03/31 12:35:15;;;;;;;12.95;2.15;;;;;;;;;;5088928;28;20087;-70
2023/03/31 12:37:59;;;;;;;13.13;3.05;;;;;;;;;;5067753;28;20526;-69
2023/03/31 12:40:35;;;;;;;11.77;3.15;;;;;;;;;;5085538;28;20048;-70
2023/03/31 12:43:10;;;;;;;15.52;2.78;;;;;;;;;;5081321;28;20040;-69
2023/03/31 12:45:39;;;;;;;19.00;3.20;;;;;;;;;;5088501;28;20068;-69
2023/03/31 12:48:12;;;;;;;13.65;3.08;;;;;;;;;;5067874;28;20051;-69
2023/03/31 12:50:47;;;;;;;13.90;3.17;;;;;;;;;;5079413;28;20044;-69
2023/03/31 12:53:20;;;;;;;18.92;3.65;;;;;;;;;;5087063;28;20063;-69
2023/03/31 12:55:48;;;;;;;19.55;4.05;;;;;;;;;;5081886;28;20120;-69
2023/03/31 12:58:34;;;;;;;18.58;3.80;;;;;;;;;;5087116;28;20372;-69
2023/03/31 13:01:06;;;;;;;18.05;4.03;;;;;;;;;;5066888;28;20131;-69
2023/03/31 13:03:43;;;;;;;24.70;5.65;;;;;;;;;;5084624;28;20056;-68
2023/03/31 13:06:12;;;;;;;20.88;4.35;;;;;;;;;;5074875;28;20051;-68
2023/03/31 13:08:51;;;;;;;15.20;3.10;;;;;;;;;;5076273;28;20048;-68
2023/03/31 13:11:19;;;;;;;14.10;3.05;;;;;;;;;;5077602;28;20568;-68
2023/03/31 13:13:47;;;;;;;12.57;2.85;;;;;;;;;;5084924;28;20202;-68
2023/03/31 13:16:19;;;;;;;18.40;3.05;;;;;;;;;;5082774;28;20052;-68
2023/03/31 13:18:52;;;;;;;15.32;2.63;;;;;;;;;;5083431;28;20040;-68
2023/03/31 13:21:19;;;;;;;11.43;2.30;;;;;;;;;;5067049;28;20050;-68
2023/03/31 13:23:47;;;;;;;11.15;2.35;;;;;;;;;;5089593;28;20048;-68
2023/03/31 13:26:33;;;;;;;7.90;1.80;;;;;;;;;;5079582;28;20055;-68
2023/03/31 13:29:12;;;;;;;14.98;1.70;;;;;;;;;;5086227;28;20551;-68
2023/03/31 13:32:03;;;;;;;10.70;2.38;;;;;;;;;;5061093;28;20068;-68
2023/03/31 13:34:32;;;;;;;10.00;2.17;;;;;;;;;;5050653;28;21322;-69
2023/03/31 13:37:08;;;;;;;11.20;1.80;;;;;;;;;;5081696;28;20119;-68
2023/03/31 13:39:49;;;;;;;10.25;1.63;;;;;;;;;;5087334;28;20052;-68
2023/03/31 13:42:40;;;;;;;8.45;1.80;;;;;;;;;;5082626;28;20067;-68
2023/03/31 13:45:16;;;;;;;7.00;1.30;;;;;;;;;;5086909;28;20051;-68
2023/03/31 13:47:56;;;;;;;10.07;2.13;;;;;;;;;;5083012;28;20070;-69
2023/03/31 13:50:53;;;;;;;9.90;1.80;;;;;;;;;;5085605;28;20054;-68
2023/03/31 13:53:27;;;;;;;9.88;1.77;;;;;;;;;;5003776;28;20057;-69
2023/03/31 13:56:00;;;;;;;11.32;2.00;;;;;;;;;;5072192;28;20051;-69
2023/03/31 13:58:42;;;;;;;9.20;2.10;;;;;;;;;;5084890;28;20050;-69
2023/03/31 14:01:27;;;;;;;11.25;1.70;;;;;;;;;;5084190;28;20414;-69
2023/03/31 14:04:01;;;;;;;9.88;1.30;;;;;;;;;;5085972;28;20044;-69
2023/03/31 14:06:34;;;;;;;6.38;1.80;;;;;;;;;;5084614;28;20502;-69
2023/03/31 14:09:05;;;;;;;8.27;2.05;;;;;;;;;;5084985;28;20059;-69
2023/03/31 14:11:33;;;;;;;10.38;3.00;;;;;;;;;;5083293;28;20063;-69
2023/03/31 14:14:05;;;;;;;10.70;2.90;;;;;;;;;;5087727;28;20052;-69
2023/03/31 14:16:34;;;;;;;9.20;2.60;;;;;;;;;;5067684;28;20062;-69
2023/03/31 14:19:20;;;;;;;5.90;1.65;;;;;;;;;;5066729;28;20048;-69
2023/03/31 14:21:49;;;;;;;10.52;3.00;;;;;;;;;;5080557;28;20048;-69
2023/03/31 14:24:22;;;;;;;8.45;2.70;;;;;;;;;;5086286;28;20134;-69
2023/03/31 14:26:54;;;;;;;12.03;3.50;;;;;;;;;;5080891;28;20062;-69
2023/03/31 14:29:24;;;;;;;9.13;2.83;;;;;;;;;;5085346;28;20056;-69
2023/03/31 14:31:56;;;;;;;7.75;1.48;;;;;;;;;;5085689;28;20048;-69
2023/03/31 14:34:41;;;;;;;9.52;1.77;;;;;;;;;;5087132;28;20058;-69
2023/03/31 14:37:12;;;;;;;5.97;1.63;;;;;;;;;;5078094;28;20455;-69
2023/03/31 14:39:42;;;;;;;8.32;1.70;;;;;;;;;;5082380;28;20055;-69
2023/03/31 14:42:12;;;;;;;5.97;1.00;;;;;;;;;;5086527;28;20059;-69
2023/03/31 14:44:41;;;;;;;7.07;1.33;;;;;;;;;;5082176;28;20040;-68
2023/03/31 14:47:13;;;;;;;6.65;1.40;;;;;;;;;;5085882;28;20044;-69
2023/03/31 14:49:41;;;;;;;5.35;1.10;;;;;;;;;;5087969;28;20062;-68